sensor_id;sensor_type;location;lat;lon;timestamp;pressure;altitude;pressure_sealevel;temperature;humidity
11487;BME280;10510;47.942;9.442;2022-10-16T00:00:38;94605.00;;;11.25;100.00
11487;BME280;10510;47.942;9.442;2022-10-16T00:02:39;94609.09;;;11.34;100.00
11487;BME280;10510;47.942;9.442;2022-10-16T00:04:39;94609.97;;;11.42;100.00
11487;BME280;10510;47.942;9.442;2022-10-16T00:06:39;94610.19;;;11.47;100.00
11487;BME280;10510;47.942;9.442;2022-10-16T00:08:40;94615.50;;;11.53;100.00
11487;BME280;10510;47.942;9.442;2022-10-16T00:10:40;94616.75;;;11.57;100.00
11487;BME280;10510;47.942;9.442;2022-10-16T00:12:41;94613.94;;;11.59;100.00
11487;BME280;10510;47.942;9.442;2022-10-16T00:14:41;94607.72;;;11.60;100.00
11487;BME280;10510;47.942;9.442;2022-10-16T00:16:43;94620.78;;;11.60;100.00
11487;BME280;10510;47.942;9.442;2022-10-16T00:18:44;94615.56;;;11.60;100.00
11487;BME280;10510;47.942;9.442;2022-10-16T00:20:44;94611.75;;;11.63;100.00
11487;BME280;10510;47.942;9.442;2022-10-16T00:22:44;94607.13;;;11.65;100.00
11487;BME280;10510;47.942;9.442;2022-10-16T00:24:45;94617.41;;;11.66;100.00
11487;BME280;10510;47.942;9.442;2022-10-16T00:26:45;94606.13;;;11.66;100.00
11487;BME280;10510;47.942;9.442;2022-10-16T00:28:50;94603.13;;;11.69;100.00
11487;BME280;10510;47.942;9.442;2022-10-16T00:30:51;94606.81;;;11.74;100.00
11487;BME280;10510;47.942;9.442;2022-10-16T00:32:51;94614.06;;;11.79;100.00
11487;BME280;10510;47.942;9.442;2022-10-16T00:34:52;94604.66;;;11.85;100.00
11487;BME280;10510;47.942;9.442;2022-10-16T00:36:54;94605.09;;;11.88;100.00
11487;BME280;10510;47.942;9.442;2022-10-16T00:38:56;94607.34;;;11.91;100.00
11487;BME280;10510;47.942;9.442;2022-10-16T00:40:59;94594.69;;;11.95;100.00
11487;BME280;10510;47.942;9.442;2022-10-16T00:43:00;94596.72;;;11.99;100.00
11487;BME280;10510;47.942;9.442;2022-10-16T00:45:00;94591.91;;;12.03;100.00
11487;BME280;10510;47.942;9.442;2022-10-16T00:47:01;94597.75;;;12.05;100.00
11487;BME280;10510;47.942;9.442;2022-10-16T00:49:15;94599.97;;;12.08;100.00
11487;BME280;10510;47.942;9.442;2022-10-16T00:51:19;94602.84;;;12.13;100.00
11487;BME280;10510;47.942;9.442;2022-10-16T00:53:21;94604.44;;;12.14;100.00
11487;BME280;10510;47.942;9.442;2022-10-16T00:55:24;94592.38;;;12.13;100.00
11487;BME280;10510;47.942;9.442;2022-10-16T00:57:24;94589.91;;;12.12;100.00
11487;BME280;10510;47.942;9.442;2022-10-16T00:59:35;94592.38;;;12.13;100.00
11487;BME280;10510;47.942;9.442;2022-10-16T01:01:36;94594.59;;;12.16;100.00
11487;BME280;10510;47.942;9.442;2022-10-16T01:03:37;94596.81;;;12.19;100.00
11487;BME280;10510;47.942;9.442;2022-10-16T01:05:45;94604.91;;;12.24;100.00
11487;BME280;10510;47.942;9.442;2022-10-16T01:07:52;94608.16;;;12.26;100.00
11487;BME280;10510;47.942;9.442;2022-10-16T01:14:29;94613.41;;;12.26;100.00
11487;BME280;10510;47.942;9.442;2022-10-16T01:16:43;94609.53;;;12.22;100.00
11487;BME280;10510;47.942;9.442;2022-10-16T01:18:53;94604.88;;;12.18;100.00
11487;BME280;10510;47.942;9.442;2022-10-16T01:21:01;94599.66;;;12.18;100.00
11487;BME280;10510;47.942;9.442;2022-10-16T01:23:08;94602.66;;;12.15;100.00
11487;BME280;10510;47.942;9.442;2022-10-16T01:25:25;94601.03;;;12.14;100.00
11487;BME280;10510;47.942;9.442;2022-10-16T01:27:33;94608.06;;;12.13;100.00
11487;BME280;10510;47.942;9.442;2022-10-16T01:30:09;94611.50;;;12.14;100.00
11487;BME280;10510;47.942;9.442;2022-10-16T01:32:40;94608.88;;;12.14;100.00
11487;BME280;10510;47.942;9.442;2022-10-16T01:35:05;94608.06;;;12.13;100.00
11487;BME280;10510;47.942;9.442;2022-10-16T01:37:12;94609.69;;;12.14;100.00
11487;BME280;10510;47.942;9.442;2022-10-16T01:39:15;94604.44;;;12.14;100.00
11487;BME280;10510;47.942;9.442;2022-10-16T01:41:24;94609.69;;;12.14;100.00
11487;BME280;10510;47.942;9.442;2022-10-16T01:43:32;94593.97;;;12.14;100.00
11487;BME280;10510;47.942;9.442;2022-10-16T01:45:34;94592.38;;;12.13;100.00
11487;BME280;10510;47.942;9.442;2022-10-16T01:47:36;94599.84;;;12.16;100.00
11487;BME280;10510;47.942;9.442;2022-10-16T01:49:38;94607.53;;;12.24;100.00
11487;BME280;10510;47.942;9.442;2022-10-16T01:51:41;94613.81;;;12.30;100.00
11487;BME280;10510;47.942;9.442;2022-10-16T01:53:50;94604.94;;;12.31;100.00
11487;BME280;10510;47.942;9.442;2022-10-16T01:55:52;94612.41;;;12.34;100.00
11487;BME280;10510;47.942;9.442;2022-10-16T01:57:54;94615.44;;;12.38;100.00
11487;BME280;10510;47.942;9.442;2022-10-16T01:59:58;94624.56;;;12.42;100.00
11487;BME280;10510;47.942;9.442;2022-10-16T02:02:05;94630.78;;;12.41;100.00
11487;BME280;10510;47.942;9.442;2022-10-16T02:04:20;94620.28;;;12.34;100.00
11487;BME280;10510;47.942;9.442;2022-10-16T02:06:21;94624.09;;;12.32;100.00
11487;BME280;10510;47.942;9.442;2022-10-16T02:08:24;94624.28;;;12.30;100.00
11487;BME280;10510;47.942;9.442;2022-10-16T02:10:26;94625.28;;;12.29;100.00
11487;BME280;10510;47.942;9.442;2022-10-16T02:12:33;94622.66;;;12.29;100.00
11487;BME280;10510;47.942;9.442;2022-10-16T02:14:38;94624.47;;;12.28;100.00
11487;BME280;10510;47.942;9.442;2022-10-16T02:16:42;94618.66;;;12.26;100.00
11487;BME280;10510;47.942;9.442;2022-10-16T02:18:43;94622.06;;;12.27;100.00
11487;BME280;10510;47.942;9.442;2022-10-16T02:20:57;94617.41;;;12.22;100.00
11487;BME280;10510;47.942;9.442;2022-10-16T02:23:00;94613.16;;;12.21;100.00
11487;BME280;10510;47.942;9.442;2022-10-16T02:25:16;94620.63;;;12.18;100.00
11487;BME280;10510;47.942;9.442;2022-10-16T02:27:27;94623.22;;;12.18;100.00
11487;BME280;10510;47.942;9.442;2022-10-16T02:29:30;94621.59;;;12.17;100.00
11487;BME280;10510;47.942;9.442;2022-10-16T02:31:35;94631.47;;;12.15;100.00
11487;BME280;10510;47.942;9.442;2022-10-16T02:33:40;94624.59;;;12.14;100.00
11487;BME280;10510;47.942;9.442;2022-10-16T02:35:43;94617.94;;;12.11;100.00
11487;BME280;10510;47.942;9.442;2022-10-16T02:37:46;94621.56;;;12.10;100.00
11487;BME280;10510;47.942;9.442;2022-10-16T02:39:47;94618.13;;;12.10;100.00
11487;BME280;10510;47.942;9.442;2022-10-16T02:41:47;94623.78;;;12.13;100.00
11487;BME280;10510;47.942;9.442;2022-10-16T02:43:48;94626.66;;;12.18;100.00
11487;BME280;10510;47.942;9.442;2022-10-16T02:45:49;94620.41;;;12.19;100.00
11487;BME280;10510;47.942;9.442;2022-10-16T02:47:49;94623.66;;;12.21;100.00
11487;BME280;10510;47.942;9.442;2022-10-16T02:49:49;94621.03;;;12.21;100.00
11487;BME280;10510;47.942;9.442;2022-10-16T02:51:50;94625.06;;;12.24;100.00
11487;BME280;10510;47.942;9.442;2022-10-16T02:53:50;94622.25;;;12.25;100.00
11487;BME280;10510;47.942;9.442;2022-10-16T02:55:50;94623.06;;;12.26;100.00
11487;BME280;10510;47.942;9.442;2022-10-16T02:57:50;94628.09;;;12.27;100.00
11487;BME280;10510;47.942;9.442;2022-10-16T02:59:51;94624.88;;;12.25;100.00
11487;BME280;10510;47.942;9.442;2022-10-16T03:01:51;94623.66;;;12.21;100.00
11487;BME280;10510;47.942;9.442;2022-10-16T03:03:51;94616.19;;;12.18;100.00
11487;BME280;10510;47.942;9.442;2022-10-16T03:05:52;94612.31;;;12.14;100.00
11487;BME280;10510;47.942;9.442;2022-10-16T03:07:52;94617.75;;;12.13;100.00
11487;BME280;10510;47.942;9.442;2022-10-16T03:09:52;94621.34;;;12.12;100.00
11487;BME280;10510;47.942;9.442;2022-10-16T03:11:53;94619.56;;;12.12;100.00
11487;BME280;10510;47.942;9.442;2022-10-16T03:13:53;94623.38;;;12.10;100.00
11487;BME280;10510;47.942;9.442;2022-10-16T03:15:53;94616.09;;;12.05;100.00
11487;BME280;10510;47.942;9.442;2022-10-16T03:17:54;94613.84;;;12.02;100.00
11487;BME280;10510;47.942;9.442;2022-10-16T03:19:55;94620.09;;;12.01;100.00
11487;BME280;10510;47.942;9.442;2022-10-16T03:21:55;94618.84;;;11.97;100.00
11487;BME280;10510;47.942;9.442;2022-10-16T03:23:55;94604.16;;;11.96;100.00
11487;BME280;10510;47.942;9.442;2022-10-16T03:25:55;94609.38;;;11.96;100.00
11487;BME280;10510;47.942;9.442;2022-10-16T03:27:56;94607.56;;;11.96;100.00
11487;BME280;10510;47.942;9.442;2022-10-16T03:29:56;94610.00;;;11.98;100.00
11487;BME280;10510;47.942;9.442;2022-10-16T03:31:56;94617.28;;;12.02;100.00
11487;BME280;10510;47.942;9.442;2022-10-16T03:33:57;94616.28;;;12.03;100.00
11487;BME280;10510;47.942;9.442;2022-10-16T03:35:57;94618.53;;;12.07;100.00
11487;BME280;10510;47.942;9.442;2022-10-16T03:37:57;94617.50;;;12.08;100.00
11487;BME280;10510;47.942;9.442;2022-10-16T03:39:57;94628.41;;;12.11;100.00
11487;BME280;10510;47.942;9.442;2022-10-16T03:41:58;94634.28;;;12.13;100.00
11487;BME280;10510;47.942;9.442;2022-10-16T03:43:58;94627.84;;;12.16;100.00
11487;BME280;10510;47.942;9.442;2022-10-16T03:45:58;94626.84;;;12.17;100.00
11487;BME280;10510;47.942;9.442;2022-10-16T03:47:58;94637.13;;;12.18;100.00
11487;BME280;10510;47.942;9.442;2022-10-16T03:49:59;94629.88;;;12.20;100.00
11487;BME280;10510;47.942;9.442;2022-10-16T03:52:00;94629.66;;;12.15;100.00
11487;BME280;10510;47.942;9.442;2022-10-16T03:54:00;94634.09;;;12.15;100.00
11487;BME280;10510;47.942;9.442;2022-10-16T03:56:00;94640.31;;;12.14;100.00
11487;BME280;10510;47.942;9.442;2022-10-16T03:58:01;94644.56;;;12.15;100.00
11487;BME280;10510;47.942;9.442;2022-10-16T04:00:02;94657.47;;;12.16;100.00
11487;BME280;10510;47.942;9.442;2022-10-16T04:02:02;94662.31;;;12.19;100.00
11487;BME280;10510;47.942;9.442;2022-10-16T04:04:03;94657.88;;;12.20;100.00
11487;BME280;10510;47.942;9.442;2022-10-16T04:06:03;94649.44;;;12.18;100.00
11487;BME280;10510;47.942;9.442;2022-10-16T04:08:03;94654.44;;;12.13;100.00
11487;BME280;10510;47.942;9.442;2022-10-16T04:10:04;94649.56;;;12.10;100.00
11487;BME280;10510;47.942;9.442;2022-10-16T04:12:05;94656.00;;;12.07;100.00
11487;BME280;10510;47.942;9.442;2022-10-16T04:14:05;94652.16;;;12.03;100.00
11487;BME280;10510;47.942;9.442;2022-10-16T04:16:05;94640.63;;;11.97;100.00
11487;BME280;10510;47.942;9.442;2022-10-16T04:18:06;94649.44;;;11.90;100.00
11487;BME280;10510;47.942;9.442;2022-10-16T04:20:06;94657.41;;;11.81;100.00
11487;BME280;10510;47.942;9.442;2022-10-16T04:22:07;94653.72;;;11.76;100.00
11487;BME280;10510;47.942;9.442;2022-10-16T04:24:07;94648.06;;;11.72;100.00
11487;BME280;10510;47.942;9.442;2022-10-16T04:26:07;94656.94;;;11.71;100.00
11487;BME280;10510;47.942;9.442;2022-10-16T04:28:07;94659.53;;;11.71;100.00
11487;BME280;10510;47.942;9.442;2022-10-16T04:30:08;94658.50;;;11.66;100.00
11487;BME280;10510;47.942;9.442;2022-10-16T04:32:09;94664.09;;;11.63;100.00
11487;BME280;10510;47.942;9.442;2022-10-16T04:34:09;94665.66;;;11.57;100.00
11487;BME280;10510;47.942;9.442;2022-10-16T04:36:09;94667.22;;;11.51;100.00
11487;BME280;10510;47.942;9.442;2022-10-16T04:38:10;94668.16;;;11.44;100.00
11487;BME280;10510;47.942;9.442;2022-10-16T04:40:10;94665.31;;;11.39;100.00
11487;BME280;10510;47.942;9.442;2022-10-16T04:42:11;94665.84;;;11.34;100.00
11487;BME280;10510;47.942;9.442;2022-10-16T04:44:11;94664.78;;;11.28;100.00
11487;BME280;10510;47.942;9.442;2022-10-16T04:46:12;94673.22;;;11.24;100.00
11487;BME280;10510;47.942;9.442;2022-10-16T04:48:12;94668.16;;;11.22;100.00
11487;BME280;10510;47.942;9.442;2022-10-16T04:50:12;94672.59;;;11.22;100.00
11487;BME280;10510;47.942;9.442;2022-10-16T04:52:12;94674.56;;;11.20;100.00
11487;BME280;10510;47.942;9.442;2022-10-16T04:54:13;94668.91;;;11.16;100.00
11487;BME280;10510;47.942;9.442;2022-10-16T04:56:13;94672.25;;;11.10;100.00
11487;BME280;10510;47.942;9.442;2022-10-16T04:58:14;94669.00;;;11.08;100.00
11487;BME280;10510;47.942;9.442;2022-10-16T05:00:15;94676.88;;;11.08;100.00
11487;BME280;10510;47.942;9.442;2022-10-16T05:02:15;94665.59;;;11.07;100.00
11487;BME280;10510;47.942;9.442;2022-10-16T05:04:15;94669.66;;;11.10;100.00
11487;BME280;10510;47.942;9.442;2022-10-16T05:06:16;94670.28;;;11.12;100.00
11487;BME280;10510;47.942;9.442;2022-10-16T05:08:16;94675.69;;;11.10;100.00
11487;BME280;10510;47.942;9.442;2022-10-16T05:10:17;94674.88;;;11.10;100.00
11487;BME280;10510;47.942;9.442;2022-10-16T05:12:17;94676.88;;;11.08;100.00
11487;BME280;10510;47.942;9.442;2022-10-16T05:14:17;94683.72;;;11.09;100.00
11487;BME280;10510;47.942;9.442;2022-10-16T05:16:18;94681.72;;;11.11;100.00
11487;BME280;10510;47.942;9.442;2022-10-16T05:18:18;94680.91;;;11.10;100.00
11487;BME280;10510;47.942;9.442;2022-10-16T05:20:18;94679.31;;;11.09;100.00
11487;BME280;10510;47.942;9.442;2022-10-16T05:22:18;94677.50;;;11.10;100.00
11487;BME280;10510;47.942;9.442;2022-10-16T05:24:19;94670.28;;;11.12;100.00
11487;BME280;10510;47.942;9.442;2022-10-16T05:26:19;94670.28;;;11.12;100.00
11487;BME280;10510;47.942;9.442;2022-10-16T05:28:19;94667.84;;;11.10;100.00
11487;BME280;10510;47.942;9.442;2022-10-16T05:30:20;94672.44;;;11.08;100.00
11487;BME280;10510;47.942;9.442;2022-10-16T05:32:20;94673.44;;;11.07;100.00
11487;BME280;10510;47.942;9.442;2022-10-16T05:34:21;94678.50;;;11.09;100.00
11487;BME280;10510;47.942;9.442;2022-10-16T05:36:21;94678.13;;;11.12;100.00
11487;BME280;10510;47.942;9.442;2022-10-16T05:38:21;94674.50;;;11.13;100.00
11487;BME280;10510;47.942;9.442;2022-10-16T05:40:22;94671.69;;;11.14;100.00
11487;BME280;10510;47.942;9.442;2022-10-16T05:42:22;94677.75;;;11.15;100.00
11487;BME280;10510;47.942;9.442;2022-10-16T05:44:22;94683.00;;;11.15;100.00
11487;BME280;10510;47.942;9.442;2022-10-16T05:46:23;94685.59;;;11.15;100.00
11487;BME280;10510;47.942;9.442;2022-10-16T05:48:23;94691.81;;;11.14;100.00
11487;BME280;10510;47.942;9.442;2022-10-16T05:50:24;94697.84;;;11.14;100.00
11487;BME280;10510;47.942;9.442;2022-10-16T05:52:24;94696.88;;;11.16;100.00
11487;BME280;10510;47.942;9.442;2022-10-16T05:54:24;94696.25;;;11.13;100.00
11487;BME280;10510;47.942;9.442;2022-10-16T05:56:25;94696.44;;;11.12;100.00
11487;BME280;10510;47.942;9.442;2022-10-16T05:58:28;94701.66;;;11.12;100.00
11487;BME280;10510;47.942;9.442;2022-10-16T06:00:29;94699.06;;;11.12;100.00
11487;BME280;10510;47.942;9.442;2022-10-16T06:02:29;94701.47;;;11.13;100.00
11487;BME280;10510;47.942;9.442;2022-10-16T06:04:29;94704.09;;;11.13;100.00
11487;BME280;10510;47.942;9.442;2022-10-16T06:06:30;94701.28;;;11.15;100.00
11487;BME280;10510;47.942;9.442;2022-10-16T06:08:31;94700.28;;;11.16;100.00
11487;BME280;10510;47.942;9.442;2022-10-16T06:10:31;94707.78;;;11.19;100.00
11487;BME280;10510;47.942;9.442;2022-10-16T06:12:32;94713.44;;;11.23;100.00
11487;BME280;10510;47.942;9.442;2022-10-16T06:14:32;94706.84;;;11.27;100.00
11487;BME280;10510;47.942;9.442;2022-10-16T06:16:34;94710.06;;;11.29;100.00
11487;BME280;10510;47.942;9.442;2022-10-16T06:18:35;94710.53;;;11.32;100.00
11487;BME280;10510;47.942;9.442;2022-10-16T06:20:36;94713.75;;;11.34;100.00
11487;BME280;10510;47.942;9.442;2022-10-16T06:22:36;94714.81;;;11.40;100.00
11487;BME280;10510;47.942;9.442;2022-10-16T06:24:37;94720.94;;;11.47;100.00
11487;BME280;10510;47.942;9.442;2022-10-16T06:26:37;94718.56;;;11.52;100.00
11487;BME280;10510;47.942;9.442;2022-10-16T06:28:38;94717.81;;;11.58;100.00
11487;BME280;10510;47.942;9.442;2022-10-16T06:30:39;94716.25;;;11.64;100.00
11487;BME280;10510;47.942;9.442;2022-10-16T06:32:39;94720.94;;;11.69;100.00
11487;BME280;10510;47.942;9.442;2022-10-16T06:34:39;94715.75;;;11.75;100.00
11487;BME280;10510;47.942;9.442;2022-10-16T06:36:41;94725.47;;;11.81;100.00
11487;BME280;10510;47.942;9.442;2022-10-16T06:38:42;94721.94;;;11.89;100.00
11487;BME280;10510;47.942;9.442;2022-10-16T06:40:42;94730.66;;;11.96;100.00
11487;BME280;10510;47.942;9.442;2022-10-16T06:42:43;94716.81;;;12.02;100.00
11487;BME280;10510;47.942;9.442;2022-10-16T06:44:43;94718.47;;;12.10;100.00
11487;BME280;10510;47.942;9.442;2022-10-16T06:46:43;94727.00;;;12.19;100.00
11487;BME280;10510;47.942;9.442;2022-10-16T06:48:44;94722.44;;;12.27;100.00
11487;BME280;10510;47.942;9.442;2022-10-16T06:50:55;94731.59;;;12.38;100.00
11487;BME280;10510;47.942;9.442;2022-10-16T06:52:55;94732.22;;;12.47;100.00
11487;BME280;10510;47.942;9.442;2022-10-16T06:54:55;94732.88;;;12.56;100.00
11487;BME280;10510;47.942;9.442;2022-10-16T06:56:56;94749.09;;;12.66;100.00
11487;BME280;10510;47.942;9.442;2022-10-16T06:58:56;94745.94;;;12.77;100.00
11487;BME280;10510;47.942;9.442;2022-10-16T07:00:56;94754.88;;;12.89;100.00
11487;BME280;10510;47.942;9.442;2022-10-16T07:02:57;94754.09;;;13.02;100.00
11487;BME280;10510;47.942;9.442;2022-10-16T07:04:57;94764.03;;;13.13;100.00
11487;BME280;10510;47.942;9.442;2022-10-16T07:07:00;94771.19;;;13.26;100.00
11487;BME280;10510;47.942;9.442;2022-10-16T07:09:03;94778.09;;;13.34;100.00
11487;BME280;10510;47.942;9.442;2022-10-16T07:11:07;94787.00;;;13.39;100.00
11487;BME280;10510;47.942;9.442;2022-10-16T07:13:08;94790.44;;;13.47;100.00
11487;BME280;10510;47.942;9.442;2022-10-16T07:15:08;94785.41;;;13.58;100.00
11487;BME280;10510;47.942;9.442;2022-10-16T07:17:08;94791.13;;;13.69;100.00
11487;BME280;10510;47.942;9.442;2022-10-16T07:19:09;94791.13;;;13.82;100.00
11487;BME280;10510;47.942;9.442;2022-10-16T07:21:17;94798.03;;;13.96;100.00
11487;BME280;10510;47.942;9.442;2022-10-16T07:23:18;94790.38;;;14.08;100.00
11487;BME280;10510;47.942;9.442;2022-10-16T07:25:18;94783.69;;;14.32;100.00
11487;BME280;10510;47.942;9.442;2022-10-16T07:27:18;94774.22;;;14.58;100.00
11487;BME280;10510;47.942;9.442;2022-10-16T07:29:20;94778.34;;;15.05;100.00
11487;BME280;10510;47.942;9.442;2022-10-16T07:31:21;94794.84;;;15.84;100.00
11487;BME280;10510;47.942;9.442;2022-10-16T07:33:22;94790.50;;;18.42;100.00
11487;BME280;10510;47.942;9.442;2022-10-16T07:35:22;94797.59;;;20.16;100.00
11487;BME280;10510;47.942;9.442;2022-10-16T07:37:23;94783.31;;;21.24;100.00
11487;BME280;10510;47.942;9.442;2022-10-16T07:39:23;94798.13;;;19.73;100.00
11487;BME280;10510;47.942;9.442;2022-10-16T07:41:23;94801.69;;;18.79;100.00
11487;BME280;10510;47.942;9.442;2022-10-16T07:43:24;94805.97;;;18.15;100.00
11487;BME280;10510;47.942;9.442;2022-10-16T07:45:24;94800.84;;;17.71;100.00
11487;BME280;10510;47.942;9.442;2022-10-16T07:47:24;94801.53;;;17.48;100.00
11487;BME280;10510;47.942;9.442;2022-10-16T07:49:25;94808.22;;;17.33;100.00
11487;BME280;10510;47.942;9.442;2022-10-16T07:51:26;94801.75;;;17.29;100.00
11487;BME280;10510;47.942;9.442;2022-10-16T07:53:27;94804.69;;;17.39;100.00
11487;BME280;10510;47.942;9.442;2022-10-16T07:55:27;94812.00;;;17.55;100.00
11487;BME280;10510;47.942;9.442;2022-10-16T07:57:27;94808.91;;;17.58;100.00
11487;BME280;10510;47.942;9.442;2022-10-16T07:59:28;94819.78;;;17.68;100.00
11487;BME280;10510;47.942;9.442;2022-10-16T08:01:28;94825.22;;;17.92;100.00
11487;BME280;10510;47.942;9.442;2022-10-16T08:03:28;94831.66;;;17.96;100.00
11487;BME280;10510;47.942;9.442;2022-10-16T08:05:30;94827.75;;;17.99;100.00
11487;BME280;10510;47.942;9.442;2022-10-16T08:07:31;94831.78;;;18.01;100.00
11487;BME280;10510;47.942;9.442;2022-10-16T08:09:31;94839.44;;;18.21;100.00
11487;BME280;10510;47.942;9.442;2022-10-16T08:11:32;94842.03;;;18.51;100.00
11487;BME280;10510;47.942;9.442;2022-10-16T08:13:32;94839.81;;;18.90;100.00
11487;BME280;10510;47.942;9.442;2022-10-16T08:15:32;94841.41;;;19.15;100.00
11487;BME280;10510;47.942;9.442;2022-10-16T08:17:33;94838.66;;;19.10;100.00
11487;BME280;10510;47.942;9.442;2022-10-16T08:19:33;94841.66;;;19.13;100.00
11487;BME280;10510;47.942;9.442;2022-10-16T08:21:34;94839.94;;;19.07;100.00
11487;BME280;10510;47.942;9.442;2022-10-16T08:23:34;94834.41;;;18.97;100.00
11487;BME280;10510;47.942;9.442;2022-10-16T08:25:35;94837.28;;;18.83;100.00
11487;BME280;10510;47.942;9.442;2022-10-16T08:27:36;94835.31;;;18.79;100.00
11487;BME280;10510;47.942;9.442;2022-10-16T08:29:36;94848.44;;;18.74;100.00
11487;BME280;10510;47.942;9.442;2022-10-16T08:31:38;94852.19;;;18.66;100.00
11487;BME280;10510;47.942;9.442;2022-10-16T08:33:40;94858.28;;;18.67;100.00
11487;BME280;10510;47.942;9.442;2022-10-16T08:35:41;94858.53;;;18.65;100.00
11487;BME280;10510;47.942;9.442;2022-10-16T08:37:42;94861.03;;;18.60;100.00
11487;BME280;10510;47.942;9.442;2022-10-16T08:39:42;94870.09;;;18.52;100.00
11487;BME280;10510;47.942;9.442;2022-10-16T08:44:06;94871.50;;;18.55;100.00
11487;BME280;10510;47.942;9.442;2022-10-16T08:46:30;94870.69;;;18.54;100.00
11487;BME280;10510;47.942;9.442;2022-10-16T08:48:51;94871.03;;;18.46;100.00
11487;BME280;10510;47.942;9.442;2022-10-16T08:50:52;94871.94;;;18.40;100.00
11487;BME280;10510;47.942;9.442;2022-10-16T08:52:53;94879.50;;;18.36;100.00
11487;BME280;10510;47.942;9.442;2022-10-16T08:54:55;94882.97;;;18.37;100.00
11487;BME280;10510;47.942;9.442;2022-10-16T08:57:09;94886.75;;;18.41;100.00
11487;BME280;10510;47.942;9.442;2022-10-16T08:59:13;94898.28;;;18.47;100.00
11487;BME280;10510;47.942;9.442;2022-10-16T09:01:16;94890.72;;;18.50;100.00
11487;BME280;10510;47.942;9.442;2022-10-16T09:03:48;94896.34;;;18.54;100.00
11487;BME280;10510;47.942;9.442;2022-10-16T09:08:25;94892.34;;;18.63;100.00
11487;BME280;10510;47.942;9.442;2022-10-16T09:12:40;94899.09;;;18.77;100.00
11487;BME280;10510;47.942;9.442;2022-10-16T09:17:46;94905.53;;;18.93;100.00
11487;BME280;10510;47.942;9.442;2022-10-16T09:19:29;94907.41;;;19.04;100.00
11487;BME280;10510;47.942;9.442;2022-10-16T09:21:35;94897.16;;;19.08;100.00
11487;BME280;10510;47.942;9.442;2022-10-16T09:23:37;94905.81;;;19.15;100.00
11487;BME280;10510;47.942;9.442;2022-10-16T09:25:39;94904.19;;;19.38;100.00
11487;BME280;10510;47.942;9.442;2022-10-16T09:27:43;94901.66;;;19.66;100.00
11487;BME280;10510;47.942;9.442;2022-10-16T09:29:44;94903.22;;;19.79;100.00
11487;BME280;10510;47.942;9.442;2022-10-16T09:31:44;94893.00;;;19.71;100.00
11487;BME280;10510;47.942;9.442;2022-10-16T09:33:50;94901.66;;;19.66;100.00
11487;BME280;10510;47.942;9.442;2022-10-16T09:35:54;94903.69;;;19.64;100.00
11487;BME280;10510;47.942;9.442;2022-10-16T09:37:55;94906.81;;;19.73;100.00
11487;BME280;10510;47.942;9.442;2022-10-16T09:39:56;94907.88;;;19.72;100.00
11487;BME280;10510;47.942;9.442;2022-10-16T09:41:56;94907.75;;;19.67;100.00
11487;BME280;10510;47.942;9.442;2022-10-16T09:43:59;94912.50;;;19.65;100.00
11487;BME280;10510;47.942;9.442;2022-10-16T09:46:02;94914.75;;;19.61;100.00
11487;BME280;10510;47.942;9.442;2022-10-16T09:48:17;94917.81;;;19.65;100.00
11487;BME280;10510;47.942;9.442;2022-10-16T09:50:23;94916.16;;;19.76;100.00
11487;BME280;10510;47.942;9.442;2022-10-16T09:52:25;94915.47;;;20.09;100.00
11487;BME280;10510;47.942;9.442;2022-10-16T09:54:25;94916.28;;;20.21;100.00
11487;BME280;10510;47.942;9.442;2022-10-16T09:56:31;94915.75;;;20.36;100.00
11487;BME280;10510;47.942;9.442;2022-10-16T09:58:36;94916.50;;;20.77;100.00
11487;BME280;10510;47.942;9.442;2022-10-16T10:00:41;94917.94;;;21.35;100.00
11487;BME280;10510;47.942;9.442;2022-10-16T10:02:41;94911.81;;;21.35;100.00
11487;BME280;10510;47.942;9.442;2022-10-16T10:04:49;94904.81;;;21.28;100.00
11487;BME280;10510;47.942;9.442;2022-10-16T10:06:55;94911.31;;;21.71;100.00
11487;BME280;10510;47.942;9.442;2022-10-16T10:09:03;94906.09;;;21.82;100.00
11487;BME280;10510;47.942;9.442;2022-10-16T10:11:04;94897.41;;;22.30;100.00
11487;BME280;10510;47.942;9.442;2022-10-16T10:13:17;94898.84;;;22.43;100.00
11487;BME280;10510;47.942;9.442;2022-10-16T10:15:19;94895.44;;;22.48;100.00
11487;BME280;10510;47.942;9.442;2022-10-16T10:17:25;94900.91;;;22.63;100.00
11487;BME280;10510;47.942;9.442;2022-10-16T10:19:27;94898.25;;;22.63;100.00
11487;BME280;10510;47.942;9.442;2022-10-16T10:21:27;94910.47;;;22.86;100.00
11487;BME280;10510;47.942;9.442;2022-10-16T10:23:28;94904.25;;;23.07;100.00
11487;BME280;10510;47.942;9.442;2022-10-16T10:25:49;94908.84;;;23.12;100.00
11487;BME280;10510;47.942;9.442;2022-10-16T10:30:15;94894.53;;;23.28;100.00
11487;BME280;10510;47.942;9.442;2022-10-16T10:32:34;94889.25;;;23.33;100.00
11487;BME280;10510;47.942;9.442;2022-10-16T10:34:50;94890.19;;;23.54;100.00
11487;BME280;10510;47.942;9.442;2022-10-16T10:37:11;94891.81;;;23.61;100.00
11487;BME280;10510;47.942;9.442;2022-10-16T10:43:55;94887.25;;;24.09;100.00
11487;BME280;10510;47.942;9.442;2022-10-16T10:46:03;94887.53;;;24.17;100.00
11487;BME280;10510;47.942;9.442;2022-10-16T10:50:39;94887.94;;;24.67;100.00
11487;BME280;10510;47.942;9.442;2022-10-16T10:53:02;94877.28;;;25.13;100.00
11487;BME280;10510;47.942;9.442;2022-10-16T10:55:14;94885.31;;;25.28;100.00
11487;BME280;10510;47.942;9.442;2022-10-16T10:57:22;94881.28;;;25.51;100.00
11487;BME280;10510;47.942;9.442;2022-10-16T11:04:20;94877.22;;;25.69;100.00
11487;BME280;10510;47.942;9.442;2022-10-16T11:06:33;94871.81;;;25.90;100.00
11487;BME280;10510;47.942;9.442;2022-10-16T11:08:51;94872.13;;;25.83;100.00
11487;BME280;10510;47.942;9.442;2022-10-16T11:11:02;94871.84;;;25.69;100.00